Terminal Aerodrome Forecast
Issued by NWS Bismarck, ND

Home | Current Version | Previous Version | Graphics & Text | Print | Product List | Glossary On
Versions: 1 2 3 4 5 6 7 8 9 10 11 12 13 14 15 16 17 18 19 20
000
FTUS43 KBIS 250337 AAB
TAFBIS
TAF AMD
KBIS 250337Z 2504/2524 02013KT P6SM OVC012
     FM251600 03014G22KT P6SM OVC010
     FM252100 01014G23KT P6SM OVC020=

USA.gov is the U.S. government's official web portal to all federal, state and local government web resources and services.